Terminal Aerodrome Forecast
Issued by NWS

Home | Current Version | Previous Version | Graphics & Text | Print | Product List | Glossary On
Versions: 1 2 3 4 5 6 7 8 9 10 11 12 13 14 15 16 17 18 19 20
682
FTUS43 KGRB 231352 AAA
TAFCWA
TAF AMD
KCWA 231352Z 2314/2412 14006KT P6SM SCT090 BKN150
     FM231600 20006KT P6SM BKN100
     FM232000 28006KT P6SM OVC050
     FM240200 31009G15KT 6SM -RA OVC026
     FM240300 32013G22KT 4SM -RA OVC014=

USA.gov is the U.S. government's official web portal to all federal, state and local government web resources and services.